Tuesday, July 17, 2018, 1:27 AM EDT
Back to Local

KVTA, Newark Heath Airport

Location: Heath, OH, United States Lat: 40.017
Local Time: 1:27 AM EDT ( 5:27 GMT) Lon: -82.467
Time Zone: US/Eastern Elev: 882 ft

Show me the last for .
Show Decoded

2018-07-17 00:54 METAR KVTA 170454Z AUTO 00000KT 9SM CLR 22/22 A2991 RMK AO2 SLP118 T02220217
                 403060200 =
2018-07-16 23:54 METAR KVTA 170354Z AUTO 00000KT 9SM FEW027 FEW042 23/22 A2993 RMK AO2 SLP127
                 T02280217 =
2018-07-16 22:54 METAR KVTA 170254Z AUTO 00000KT 8SM SCT095 23/22 A2992 RMK AO2 LTG DSNT E SLP124
                 60000 T02280217 51010 =
2018-07-16 22:26 METAR KVTA 170226Z AUTO 00000KT 10SM FEW040 23/22 A2991 RMK AO2 LTG DSNT SE
                 T02330222 =
2018-07-16 22:06 METAR KVTA 170206Z AUTO 22003KT 10SM VCTS FEW031 23/22 A2991 RMK AO2 T02280222 =
2018-07-16 21:54 METAR KVTA 170154Z AUTO 26004KT 10SM FEW031 23/22 A2991 RMK AO2 LTG DSNT E
                 SLP120 T02330222 =
2018-07-16 20:54 METAR KVTA 170054Z AUTO 20003KT 10SM CLR 23/22 A2990 RMK AO2 RAB2358E07 SLP119
                 P0000 T02330217 =
2018-07-16 20:41 METAR KVTA 170041Z AUTO 00000KT 10SM FEW070 24/21 A2990 RMK AO2 RAB2358E07 P0000
                 T02390211 =
2018-07-16 20:23 METAR KVTA 170023Z AUTO 00000KT 10SM VCTS FEW037 FEW075 SCT090 24/22 A2990 RMK
                 AO2 RAB2358E07 P0000 T02390217 =
2018-07-16 19:54 METAR KVTA 162354Z AUTO 27005KT 10SM CLR 23/22 A2989 RMK AO2 LTG DSNT W
                 RAB2256E05B14E35 TSE07 SLP114 P0011 60076 T02330217 10306 20228 58004 =
2018-07-16 19:52 METAR KVTA 162352Z AUTO 26005KT 10SM CLR 23/22 A2989 RMK AO2 LTG DSNT W
                 RAB2256E05B14E35 TSE07 P0011 =
2018-07-16 19:34 METAR KVTA 162334Z AUTO 00000KT 10SM VCTS -RA FEW030 SCT045 SCT110 23/22 A2990
                 RMK AO2 LTG DSNT W AND NW RAB2256E05B14 TSE07 P0011 T02280217 =
2018-07-16 19:27 METAR KVTA 162327Z AUTO 00000KT 2 1/2SM VCTS -RA BR SCT034 BKN045 BKN100 23/21
                 A2990 RMK AO2 LTG DSNT W AND NW RAB2256E05B14 TSE07 P0011 T02280211 =
2018-07-16 19:19 METAR KVTA 162319Z AUTO 28004KT 3/4SM VCTS +RA BR SCT029 BKN035 OVC045 23/21
                 A2990 RMK AO2 LTG DSNT W AND NW RAB2256E05B14 TSE07 P0010 T02280211 =
2018-07-16 19:15 METAR KVTA 162315Z AUTO 29007KT 1 1/2SM RA BR SCT029 BKN042 OVC049 23/21 A2990
                 RMK AO2 LTG DSNT W AND NW RAB2256E05B14 TSE07 P0007 T02330211 =
2018-07-16 19:13 METAR KVTA 162313Z AUTO 26008KT 4SM VCTS BR FEW024 SCT033 OVC044 23/21 A2991 RMK
                 AO2 LTG DSNT W AND NW RAB2256E05 TSE07 P0003 T02330211 =
2018-07-16 18:54 METAR KVTA 162254Z AUTO 32007G19KT 290V350 10SM TS FEW019 SCT025 BKN032 24/21
                 A2991 RMK AO2 LTG DSNT W-N TSB36 SLP120 T02390211 =
2018-07-16 18:41 METAR KVTA 162241Z AUTO 33006KT 10SM TS FEW019 BKN024 BKN031 24/23 A2992 RMK AO2
                 LTG DSNT W-N TSB36 T02440228 =
2018-07-16 17:54 METAR KVTA 162154Z AUTO VRB04KT 10SM VCTS FEW047 27/24 A2990 RMK AO2 LTG DSNT
                 NW-NE RAE41 TSB01E34 SLP118 P0021 T02670244 =
2018-07-16 17:40 METAR KVTA 162140Z AUTO 10006KT 10SM VCTS -RA FEW049 SCT070 BKN085 26/24 A2990
                 RMK AO2 LTG DSNT NW-NE TSB01E34 P0021 T02610239 =
2018-07-16 17:24 METAR KVTA 162124Z AUTO 06003KT 3SM TSRA BR FEW015 BKN050 OVC080 25/24 A2991 RMK
                 AO2 LTG DSNT NW-E TSB01 P0021 T02500239 =
2018-07-16 17:06 METAR KVTA 162106Z AUTO 31005KT 1SM +TSRA BR FEW010 BKN032 OVC065 24/23 A2992
                 RMK AO2 LTG DSNT E TSB01 P0013 T02440233 =
2018-07-16 16:43 METAR KVTA 162043Z AUTO 24005KT 1 3/4SM RA SCT031 BKN044 OVC060 27/23 A2991 RMK
                 AO2 VIS 1V4 LTG DSNT SE AND S AND NW RAB33 P0005 T02670233 =
2018-07-16 15:54 METAR KVTA 161954Z AUTO 23007KT 10SM CLR 29/23 A2990 RMK AO2 LTG DSNT S AND SW
                 RAE02 SLP118 P0000 T02940228 =
2018-07-16 15:04 METAR KVTA 161904Z AUTO 00000KT 10SM FEW016 SCT033 BKN050 28/24 A2993 RMK AO2
                 RAE02 P0000 T02830239 =
2018-07-16 14:57 METAR KVTA 161857Z AUTO 15003KT 2SM -RA FEW016 BKN044 OVC070 27/24 A2994 RMK AO2
                 VIS 1/2V5 P0000 T02670239 =
2018-07-16 14:54 METAR KVTA 161854Z AUTO 16003KT 3/4SM RA FEW016 BKN032 OVC055 26/23 A2994 RMK
                 AO2 VIS 1/4V5 RAB43 SLP130 P0024 T02560228 =
2018-07-16 14:52 METAR KVTA 161852Z AUTO 17005G21KT 1/2SM +RA FG FEW016 BKN034 OVC048 25/23 A2994
                 RMK AO2 VIS 1/4V2 RAB43 P0024 =
2018-07-16 14:44 METAR KVTA 161844Z AUTO 22016G23KT 1 1/4SM -RA FEW016 BKN034 BKN043 26/22 A2995
                 RMK AO2 RAB43 P0011 T02610222 =
2018-07-16 13:54 METAR KVTA 161754Z AUTO 20005KT 10SM FEW034 FEW042 31/22 A2995 RMK AO2 SLP133
                 T03060217 10306 20233 58017 =
2018-07-16 13:01 METAR KVTA 161701Z AUTO 17005KT 10SM SCT028 BKN035 BKN085 29/22 A2998 RMK AO2
                 T02890222 =
2018-07-16 12:54 METAR KVTA 161654Z AUTO 17008KT 10SM BKN028 BKN085 29/22 A2998 RMK AO2 SLP143
                 T02940222 =
2018-07-16 11:54 METAR KVTA 161554Z AUTO 20006KT 10SM SCT046 SCT055 BKN120 28/22 A3000 RMK AO2
                 SLP150 T02780222 =
2018-07-16 10:54 METAR KVTA 161454Z AUTO 21004KT 10SM SCT120 27/22 A3000 RMK AO2 SLP151 T02720217
                 50000 =
2018-07-16 09:54 METAR KVTA 161354Z AUTO 22004KT 7SM FEW021 26/23 A3001 RMK AO2 SLP153 T02610228
                 =
2018-07-16 09:26 METAR KVTA 161326Z AUTO 22004KT 6SM BR SCT023 SCT029 25/23 A3000 RMK AO2
                 T02500228 =
2018-07-16 08:54 METAR KVTA 161254Z AUTO 00000KT 4SM BR BKN023 BKN120 24/23 A3000 RMK AO2 SLP150
                 T02440228 =
2018-07-16 08:47 METAR KVTA 161247Z AUTO 21003KT 4SM BR BKN021 BKN028 BKN120 24/23 A3000 RMK AO2
                 T02390228 =
2018-07-16 07:54 METAR KVTA 161154Z AUTO 00000KT 3SM BR FEW037 FEW120 23/22 A3000 RMK AO2 SLP150
                 T02330222 10233 20200 51004 =
2018-07-16 07:39 METAR KVTA 161139Z AUTO 00000KT 2SM BR FEW015 SCT035 BKN120 23/22 A3000 RMK AO2
                 T02330222 =
2018-07-16 07:32 METAR KVTA 161132Z AUTO 00000KT 1 3/4SM BR FEW015 SCT034 BKN120 23/22 A3000 RMK
                 AO2 T02330222 =
2018-07-16 07:24 METAR KVTA 161124Z AUTO 00000KT 2SM BR SCT015 BKN034 BKN120 23/22 A3000 RMK AO2
                 T02280222 =
2018-07-16 06:54 METAR KVTA 161054Z AUTO 08003KT 1 3/4SM BR FEW008 BKN032 OVC120 22/22 A3000 RMK
                 AO2 SLP150 T02220217 =
2018-07-16 06:43 METAR KVTA 161043Z AUTO 00000KT 1SM BR FEW008 SCT012 OVC120 22/21 A3000 RMK AO2
                 T02170211 =
2018-07-16 06:38 METAR KVTA 161038Z AUTO 07003KT 3/4SM BR SCT012 BKN120 21/21 A3000 RMK AO2
                 T02110206 =
2018-07-16 06:36 METAR KVTA 161036Z AUTO 00000KT 1SM BR BKN012 BKN120 21/21 A3000 RMK AO2
                 T02110206 =
2018-07-16 06:11 METAR KVTA 161011Z AUTO 00000KT 1SM BR BKN120 21/21 A3000 RMK AO2 T02110206 =
2018-07-16 06:04 METAR KVTA 161004Z AUTO 00000KT 2SM BR OVC120 21/21 A2999 RMK AO2 T02110211 =
2018-07-16 05:54 METAR KVTA 160954Z AUTO 00000KT 1 3/4SM BR OVC120 21/21 A2999 RMK AO2 SLP146
                 T02110206 =
2018-07-16 05:29 METAR KVTA 160929Z AUTO 00000KT 2SM BR BKN120 21/20 A2999 RMK AO2 T02060200 =
2018-07-16 05:16 METAR KVTA 160916Z AUTO 00000KT 1/2SM FG BKN120 20/20 A2999 RMK AO2 T02000200 =
2018-07-16 05:02 METAR KVTA 160902Z AUTO 00000KT 1 1/2SM BR BKN120 21/21 A2999 RMK AO2 T02110206
                 =
2018-07-16 04:54 METAR KVTA 160854Z AUTO 00000KT 2SM BR SCT120 21/20 A2999 RMK AO2 SLP146
                 T02060200 57006 =
2018-07-16 04:19 METAR KVTA 160819Z AUTO 00000KT 1 1/2SM BR CLR 20/19 A2999 RMK AO2 T02000194 =
2018-07-16 04:08 METAR KVTA 160808Z AUTO 00000KT 3SM BR CLR 21/21 A2999 RMK AO2 T02110206 =
2018-07-16 04:00 METAR KVTA 160800Z AUTO 00000KT 2SM BR CLR 21/20 A2999 RMK AO2 T02060200 =
2018-07-16 03:54 METAR KVTA 160754Z AUTO 00000KT 1/2SM FG CLR 21/20 A2999 RMK AO2 SLP147
                 T02060200 =
2018-07-16 03:47 METAR KVTA 160747Z AUTO 00000KT 1/2SM FG CLR 21/21 A2999 RMK AO2 T02110206 =
2018-07-16 03:34 METAR KVTA 160734Z AUTO 00000KT 1 1/2SM BR CLR 21/21 A3000 RMK AO2 T02110206 =
2018-07-16 02:54 METAR KVTA 160654Z AUTO 00000KT 4SM BR SCT031 21/21 A3000 RMK AO2 SLP152
                 T02110206 =
2018-07-16 02:33 METAR KVTA 160633Z AUTO 00000KT 4SM BR SCT030 21/21 A3001 RMK AO2 T02110206 =
2018-07-16 02:09 METAR KVTA 160609Z AUTO 00000KT 2 1/2SM BR CLR 21/21 A3001 RMK AO2 T02110211 =
2018-07-16 01:54 METAR KVTA 160554Z AUTO 00000KT 3SM BR CLR 21/21 A3000 RMK AO2 SLP153 T02110206
                 10283 20211 58001 =

Support USWX by starting your Amazon purchase here.